createdAt,value
2022-12-31T00:03:04.012Z,4.32
2022-12-31T00:07:07.192Z,3.33
2022-12-31T00:11:10.548Z,3.55
2022-12-31T00:15:44.535Z,4.53
2022-12-31T00:19:52.283Z,4.85
2022-12-31T00:23:57.580Z,3.70
2022-12-31T00:28:31.249Z,5.22
2022-12-31T00:32:34.493Z,7.55
2022-12-31T00:36:40.396Z,3.45
2022-12-31T00:40:47.527Z,4.18
2022-12-31T00:45:26.804Z,3.47
2022-12-31T00:49:34.622Z,4.93
2022-12-31T00:53:40.452Z,5.00
2022-12-31T00:57:44.726Z,3.55
2022-12-31T01:02:21.292Z,3.40
2022-12-31T01:06:25.159Z,3.33
2022-12-31T01:10:47.045Z,3.35
2022-12-31T01:15:06.041Z,6.13
2022-12-31T01:19:11.899Z,3.22
2022-12-31T01:23:15.899Z,2.55
2022-12-31T01:27:21.634Z,5.05
2022-12-31T01:31:28.148Z,2.33
2022-12-31T01:35:33.343Z,2.53
2022-12-31T01:39:36.683Z,3.97
2022-12-31T01:44:29.266Z,3.10
2022-12-31T01:48:35.110Z,2.80
2022-12-31T01:52:46.751Z,2.20
2022-12-31T01:57:15.052Z,2.33
2022-12-31T02:01:24.092Z,2.95
2022-12-31T02:05:38.546Z,1.80
2022-12-31T02:10:05.760Z,3.05
2022-12-31T02:14:11.370Z,2.10
2022-12-31T02:18:23.229Z,2.03
2022-12-31T02:23:00.573Z,2.13
2022-12-31T02:27:10.712Z,5.53
2022-12-31T02:31:19.709Z,2.10
2022-12-31T02:35:53.490Z,2.08
2022-12-31T02:39:57.365Z,2.65
2022-12-31T02:44:03.219Z,2.63
2022-12-31T02:48:38.717Z,3.35
2022-12-31T02:52:55.858Z,1.85
2022-12-31T02:57:09.574Z,2.90
2022-12-31T03:05:28.307Z,2.05
2022-12-31T03:09:33.035Z,4.20
2022-12-31T03:13:39.354Z,1.98
2022-12-31T03:17:50.105Z,2.20
2022-12-31T03:22:12.396Z,1.40
2022-12-31T03:26:15.440Z,5.22
2022-12-31T03:30:21.224Z,2.20
2022-12-31T03:34:25.500Z,4.28
2022-12-31T03:38:32.136Z,1.90
2022-12-31T03:42:35.379Z,4.70
2022-12-31T03:46:38.445Z,3.28
2022-12-31T03:50:44.223Z,1.80
2022-12-31T03:54:49.005Z,2.15
2022-12-31T03:58:53.662Z,3.17
2022-12-31T04:02:56.947Z,3.03
2022-12-31T04:07:01.743Z,1.30
2022-12-31T04:11:06.279Z,1.40
2022-12-31T04:15:13.036Z,3.33
2022-12-31T04:19:18.259Z,1.55
2022-12-31T04:23:24.318Z,2.47
2022-12-31T04:27:29.080Z,1.85
2022-12-31T04:31:32.204Z,1.63
2022-12-31T04:35:35.372Z,5.55
2022-12-31T04:39:38.399Z,1.35
2022-12-31T04:43:43.544Z,2.05
2022-12-31T04:47:46.607Z,7.32
2022-12-31T04:51:51.049Z,1.63
2022-12-31T04:55:54.590Z,1.30
2022-12-31T05:00:01.830Z,1.67
2022-12-31T05:04:04.950Z,2.95
2022-12-31T05:08:08.580Z,5.05
2022-12-31T05:12:13.655Z,3.83
2022-12-31T05:16:18.452Z,2.10
2022-12-31T05:20:21.866Z,1.55
2022-12-31T05:24:24.907Z,2.45
2022-12-31T05:28:28.612Z,1.30
2022-12-31T05:32:33.207Z,3.85
2022-12-31T05:36:36.280Z,1.77
2022-12-31T05:40:42.441Z,6.07
2022-12-31T05:44:45.852Z,1.60
2022-12-31T05:48:54.406Z,1.55
2022-12-31T05:52:59.567Z,2.35
2022-12-31T05:57:31.256Z,1.40
2022-12-31T06:01:36.405Z,3.80
2022-12-31T06:05:44.529Z,2.40
2022-12-31T06:09:49.770Z,1.35
2022-12-31T06:13:54.494Z,1.30
2022-12-31T06:18:08.272Z,4.88
2022-12-31T06:22:14.431Z,1.80
2022-12-31T06:26:17.687Z,3.03
2022-12-31T06:30:20.749Z,1.45
2022-12-31T06:34:24.200Z,1.60
2022-12-31T06:38:32.458Z,3.45
2022-12-31T06:42:35.846Z,1.48
2022-12-31T06:46:41.125Z,3.03
2022-12-31T06:50:44.333Z,5.47
2022-12-31T06:54:49.513Z,6.00
2022-12-31T06:58:56.556Z,3.30
2022-12-31T07:03:20.983Z,5.60
2022-12-31T07:07:33.142Z,1.40
2022-12-31T07:11:48.293Z,1.38
2022-12-31T07:16:12.120Z,1.50
2022-12-31T07:20:17.682Z,1.75
2022-12-31T07:24:24.203Z,1.73
2022-12-31T07:28:40.569Z,1.58
2022-12-31T07:33:13.689Z,1.48
2022-12-31T07:37:41.265Z,1.40
2022-12-31T07:41:54.071Z,2.38
2022-12-31T07:46:09.595Z,1.05
2022-12-31T08:29:04.081Z,2.78
2022-12-31T08:33:17.785Z,1.92
2022-12-31T08:37:39.686Z,1.40
2022-12-31T08:41:44.570Z,1.25
2022-12-31T08:45:50.979Z,2.22
2022-12-31T08:49:56.926Z,1.17
2022-12-31T08:54:05.010Z,1.00
2022-12-31T08:58:19.489Z,1.30
2022-12-31T09:02:48.464Z,1.50
2022-12-31T09:06:59.708Z,1.05
2022-12-31T09:11:14.312Z,1.27
2022-12-31T09:15:31.564Z,1.13
2022-12-31T09:19:35.550Z,1.00
2022-12-31T09:23:42.711Z,1.15
2022-12-31T09:27:58.810Z,1.05
2022-12-31T09:32:10.094Z,1.95
2022-12-31T09:36:23.657Z,4.00
2022-12-31T09:40:54.052Z,0.88
2022-12-31T09:45:23.844Z,1.63
2022-12-31T09:50:08.496Z,1.52
2022-12-31T09:54:34.561Z,0.80
2022-12-31T09:58:46.200Z,1.05
2022-12-31T10:03:18.253Z,3.55
2022-12-31T10:07:39.876Z,1.77
2022-12-31T10:12:03.098Z,1.50
2022-12-31T10:16:26.302Z,0.93
2022-12-31T10:20:45.464Z,0.82
2022-12-31T10:25:10.947Z,1.75
2022-12-31T10:29:31.812Z,0.75
2022-12-31T10:34:13.441Z,0.90
2022-12-31T10:38:31.206Z,0.93
2022-12-31T10:43:06.684Z,0.90
2022-12-31T10:47:49.192Z,0.90
2022-12-31T10:57:09.867Z,1.00
2022-12-31T11:01:20.848Z,1.00
2022-12-31T11:06:03.128Z,0.80
2022-12-31T11:10:29.169Z,1.15
2022-12-31T11:15:05.821Z,0.98
2022-12-31T11:19:25.566Z,0.98
2022-12-31T11:23:42.807Z,2.03
2022-12-31T11:28:05.564Z,3.50
2022-12-31T11:32:21.504Z,0.90
2022-12-31T11:36:42.829Z,0.90
2022-12-31T11:41:00.883Z,1.10
2022-12-31T11:45:15.724Z,1.25
2022-12-31T11:49:42.083Z,1.00
2022-12-31T11:54:01.578Z,1.08
2022-12-31T11:58:16.732Z,1.70
2022-12-31T12:02:29.443Z,2.22
2022-12-31T12:06:36.437Z,1.02
2022-12-31T12:10:45.602Z,1.25
2022-12-31T12:14:55.501Z,1.00
2022-12-31T12:19:07.017Z,1.20
2022-12-31T12:23:16.092Z,0.93
2022-12-31T12:27:24.736Z,0.98
2022-12-31T12:31:29.306Z,0.90
2022-12-31T12:35:36.818Z,1.00
2022-12-31T12:39:40.877Z,1.38
2022-12-31T12:43:45.395Z,1.00
2022-12-31T12:47:51.252Z,1.45
2022-12-31T12:52:27.248Z,2.38
2022-12-31T12:56:42.013Z,1.38
2022-12-31T13:00:52.012Z,1.27
2022-12-31T13:05:14.864Z,1.05
2022-12-31T13:09:34.770Z,1.20
2022-12-31T13:13:43.682Z,1.65
2022-12-31T13:18:01.965Z,1.20
2022-12-31T13:22:14.535Z,1.23
2022-12-31T13:26:24.064Z,1.98
2022-12-31T13:30:33.876Z,1.00
2022-12-31T13:34:42.755Z,1.10
2022-12-31T13:38:51.543Z,2.70
2022-12-31T13:43:01.833Z,1.58
2022-12-31T13:47:12.853Z,1.50
2022-12-31T13:51:32.558Z,5.47
2022-12-31T14:01:06.327Z,1.50
2022-12-31T14:05:23.609Z,1.80
2022-12-31T14:09:32.052Z,1.95
2022-12-31T14:13:45.234Z,2.92
2022-12-31T14:17:52.731Z,2.35
2022-12-31T14:22:03.645Z,1.27
2022-12-31T14:26:12.143Z,1.50
2022-12-31T14:30:20.149Z,1.42
2022-12-31T14:34:34.687Z,2.08
2022-12-31T14:38:51.586Z,1.60
2022-12-31T14:43:09.145Z,2.10
2022-12-31T14:47:27.901Z,5.05
2022-12-31T14:51:32.091Z,2.00
2022-12-31T14:55:37.617Z,4.65
2022-12-31T14:59:53.834Z,1.75
2022-12-31T15:03:59.031Z,2.22
2022-12-31T15:08:20.664Z,1.70
2022-12-31T15:12:44.570Z,4.03
2022-12-31T15:17:02.395Z,3.38
2022-12-31T15:21:27.155Z,4.80
2022-12-31T15:25:40.093Z,4.03
2022-12-31T15:29:45.938Z,8.13
2022-12-31T15:34:02.311Z,4.85
2022-12-31T15:38:33.155Z,4.97
2022-12-31T15:42:49.785Z,5.75
2022-12-31T15:46:57.684Z,4.57
2022-12-31T15:51:03.417Z,4.22
2022-12-31T15:55:10.495Z,3.58
2022-12-31T15:59:18.314Z,4.80
2022-12-31T16:03:26.884Z,10.00
2022-12-31T16:07:36.428Z,7.72
2022-12-31T16:11:43.654Z,7.45
2022-12-31T16:15:51.179Z,4.82
2022-12-31T16:19:54.720Z,8.38
2022-12-31T16:24:01.757Z,39.90
2022-12-31T16:28:05.437Z,42.60
2022-12-31T16:32:16.178Z,12.38
2022-12-31T16:36:25.569Z,26.27
2022-12-31T16:40:32.908Z,107.68
2022-12-31T16:44:39.181Z,10.10
2022-12-31T16:48:47.729Z,20.48
2022-12-31T16:52:57.860Z,18.85
2022-12-31T16:57:03.367Z,15.52
2022-12-31T17:01:14.062Z,11.52
2022-12-31T17:05:21.685Z,18.63
2022-12-31T17:09:36.881Z,15.77
2022-12-31T17:13:44.150Z,16.42
2022-12-31T17:17:57.605Z,23.83
2022-12-31T17:22:01.544Z,16.27
2022-12-31T17:26:12.132Z,14.00
2022-12-31T17:30:35.964Z,17.05
2022-12-31T17:34:49.522Z,22.23
2022-12-31T17:39:03.436Z,19.20
2022-12-31T17:43:07.432Z,18.77
2022-12-31T17:47:14.939Z,18.83
2022-12-31T17:51:24.195Z,17.70
2022-12-31T17:55:28.081Z,15.45
2022-12-31T17:59:33.698Z,23.17
2022-12-31T18:03:40.254Z,18.38
2022-12-31T18:07:43.343Z,17.65
2022-12-31T18:11:47.537Z,16.50
2022-12-31T18:15:52.714Z,24.42
2022-12-31T18:20:06.044Z,24.75
2022-12-31T18:24:14.200Z,24.83
2022-12-31T18:28:17.382Z,18.23
2022-12-31T18:32:25.252Z,19.40
2022-12-31T18:36:30.083Z,18.08
2022-12-31T18:40:34.100Z,17.05
2022-12-31T18:44:40.111Z,24.83
2022-12-31T18:48:44.173Z,22.38
2022-12-31T18:52:48.773Z,29.00
2022-12-31T18:56:56.934Z,28.83
2022-12-31T19:01:02.718Z,32.45
2022-12-31T19:05:22.118Z,24.35
2022-12-31T19:13:52.234Z,25.42
2022-12-31T19:17:55.607Z,32.10
2022-12-31T19:21:59.774Z,28.85
2022-12-31T19:26:07.275Z,23.65
2022-12-31T19:30:17.085Z,22.60
2022-12-31T19:34:22.009Z,24.75
2022-12-31T19:38:26.886Z,27.77
2022-12-31T19:42:31.390Z,24.02
2022-12-31T19:46:36.067Z,22.88
2022-12-31T19:50:46.098Z,23.55
2022-12-31T19:54:49.803Z,65.57
2022-12-31T19:58:54.257Z,37.90
2022-12-31T20:02:58.903Z,40.72
2022-12-31T20:07:02.681Z,29.48
2022-12-31T20:11:09.392Z,39.10
2022-12-31T20:15:13.979Z,35.45
2022-12-31T20:19:17.040Z,32.28
2022-12-31T20:23:20.125Z,37.70
2022-12-31T20:27:25.047Z,34.50
2022-12-31T20:31:30.786Z,31.83
2022-12-31T20:35:36.497Z,29.25
2022-12-31T20:39:48.274Z,33.72
2022-12-31T20:43:54.806Z,30.23
2022-12-31T20:48:02.182Z,31.97
2022-12-31T20:52:05.554Z,37.50
2022-12-31T20:56:10.230Z,44.00
2022-12-31T21:00:15.135Z,50.83
2022-12-31T21:04:19.929Z,41.77
2022-12-31T21:08:23.326Z,38.00
2022-12-31T21:12:53.252Z,47.78
2022-12-31T21:16:56.492Z,43.45
2022-12-31T21:21:04.980Z,40.33
2022-12-31T21:25:08.866Z,42.20
2022-12-31T21:29:11.989Z,33.63
2022-12-31T21:33:16.829Z,30.33
2022-12-31T21:37:22.986Z,77.63
2022-12-31T21:41:45.994Z,32.33
2022-12-31T21:45:49.037Z,35.43
2022-12-31T21:49:52.403Z,39.30
2022-12-31T21:53:57.055Z,34.60
2022-12-31T21:58:25.954Z,29.27
2022-12-31T22:02:42.342Z,29.30
2022-12-31T22:07:02.653Z,29.58
2022-12-31T22:11:12.455Z,31.33
2022-12-31T22:15:18.802Z,29.65
2022-12-31T22:19:22.683Z,32.85
2022-12-31T22:23:25.779Z,33.10
2022-12-31T22:27:31.583Z,29.58
2022-12-31T22:31:34.697Z,30.52
2022-12-31T22:35:40.700Z,32.10
2022-12-31T22:39:46.198Z,34.28
2022-12-31T22:43:58.481Z,36.63
2022-12-31T22:48:04.729Z,32.58
2022-12-31T22:52:08.981Z,25.60
2022-12-31T22:56:19.176Z,25.52
2022-12-31T23:00:41.360Z,214.73
2022-12-31T23:04:44.481Z,41.25
2022-12-31T23:09:04.406Z,40.50
2022-12-31T23:13:24.602Z,387.45
2022-12-31T23:17:47.980Z,337.42
2022-12-31T23:22:12.694Z,66.70
2022-12-31T23:26:18.395Z,351.03
2022-12-31T23:30:21.491Z,279.77
2022-12-31T23:34:26.041Z,455.80
2022-12-31T23:38:29.061Z,616.58
2022-12-31T23:42:32.125Z,451.63
2022-12-31T23:46:35.581Z,425.67
2022-12-31T23:50:52.462Z,320.93
2022-12-31T23:54:56.158Z,341.05
2022-12-31T23:59:03.448Z,293.10
